Terminal Aerodrome Forecast
Issued by NWS Dallas/Fort Worth, TX

Home | Current Version | Previous Version | Text Only | Print | Product List | Glossary On
Versions: 1 2 3 4 5 6 7 8 9 10 11 12 13 14 15 16 17 18 19 20 21 22 23 24 25 26
000
FTUS44 KFWD 251458 AAB
TAFACT
TAF AMD
KACT 251458Z 2515/2612 18014KT P6SM BKN017
      TEMPO 2515/2516 SCT017
     FM251600 18018G28KT P6SM FEW020 SCT300
     FM260400 17017KT P6SM BKN015=

USA.gov is the U.S. government's official web portal to all federal, state and local government web resources and services.